BDL weather

Bradley International Airport
Hartford, Connecticut, United States

Public forecast

Using degrees Fahrenheit for public forecast. Weather courtesy of forecast.io.

METAR (pilot weather report)

Retrieved 2017/10/21 11:51 UTC (1 hour ago):

KBDL 211151Z 00000KT 10SM FEW150 06/04 A3030 RMK AO2 SLP262 T00560039 10083 20044 53017

TAF (pilot weather forecast)

Retrieved 2017/10/21 12:24 UTC (35 minutes ago):

TAF KBDL 211122Z 2112/2218 00000KT P6SM FEW200 FM211700 22006KT P6SM SKC FM220200 00000KT P6SM FEW250